Time;durP1;ratioP1;P1;durP2;ratioP2;P2;SDS_P1;SDS_P2;PMS_P1;PMS_P2;Temp;Humidity;BMP_temperature;BMP_pressure;BME280_temperature;BME280_humidity;BME280_pressure;Samples;Min_cycle;Max_cycle;Signal;HPM_P1;HPM_P2
2022/10/12 00:01:33;;;;;;;39.75;38.22;;;;;;;7.00;100.00;102501.97;5066085;28;20532;-75
2022/10/12 00:03:59;;;;;;;36.22;34.67;;;;;;;7.16;100.00;102524.75;5067302;28;20020;-74
2022/10/12 00:06:25;;;;;;;36.53;35.15;;;;;;;7.02;100.00;102509.78;5066278;28;20111;-74
2022/10/12 00:08:52;;;;;;;31.50;30.20;;;;;;;7.13;100.00;102527.53;5061107;28;20037;-74
2022/10/12 00:11:24;;;;;;;32.55;31.20;;;;;;;7.07;100.00;102514.75;5064827;28;20041;-74
2022/10/12 00:13:50;;;;;;;35.13;33.53;;;;;;;7.08;100.00;102524.34;5061346;28;20136;-74
2022/10/12 00:16:17;;;;;;;32.72;31.35;;;;;;;7.05;100.00;102512.22;5055808;28;20036;-74
2022/10/12 00:18:43;;;;;;;30.92;29.77;;;;;;;7.05;100.00;102519.25;5066101;28;20128;-74
2022/10/12 00:21:12;;;;;;;32.60;31.40;;;;;;;7.01;100.00;102518.56;5057689;28;20116;-74
2022/10/12 00:23:39;;;;;;;30.85;29.55;;;;;;;6.98;100.00;102524.84;5058394;28;20041;-74
2022/10/12 00:26:07;;;;;;;26.27;25.27;;;;;;;6.92;100.00;102513.84;5059749;28;20037;-75
2022/10/12 00:28:33;;;;;;;30.55;29.35;;;;;;;6.93;100.00;102516.38;5059954;28;20032;-74
2022/10/12 00:30:59;;;;;;;27.58;26.48;;;;;;;6.90;100.00;102520.94;5056332;28;20068;-74
2022/10/12 00:33:27;;;;;;;30.90;29.65;;;;;;;6.90;100.00;102520.94;5064664;28;20028;-74
2022/10/12 00:35:53;;;;;;;23.48;22.45;;;;;;;6.89;100.00;102520.09;5060268;28;20029;-74
2022/10/12 00:38:20;;;;;;;29.42;28.30;;;;;;;6.86;100.00;102520.28;5057980;28;20673;-74
2022/10/12 00:40:46;;;;;;;28.23;26.88;;;;;;;6.82;100.00;102523.16;5061224;28;20029;-74
2022/10/12 00:43:33;;;;;;;27.42;26.27;;;;;;;6.87;100.00;102521.13;5078395;28;20028;-74
2022/10/12 00:46:00;;;;;;;25.80;24.80;;;;;;;6.86;100.00;102528.16;5056795;28;20032;-74
2022/10/12 00:48:25;;;;;;;28.77;27.38;;;;;;;6.84;100.00;102516.91;5058543;28;20116;-74
2022/10/12 00:50:52;;;;;;;31.30;29.95;;;;;;;6.84;100.00;102518.66;5057603;28;20174;-74
2022/10/12 00:53:22;;;;;;;32.92;31.65;;;;;;;6.78;100.00;102512.81;5061425;28;20114;-74
2022/10/12 00:55:52;;;;;;;36.63;34.73;;;;;;;6.77;100.00;102516.41;5060729;28;20029;-74
2022/10/12 00:58:18;;;;;;;29.63;28.50;;;;;;;6.77;100.00;102520.78;5057008;28;20111;-74
2022/10/12 01:00:44;;;;;;;33.20;31.50;;;;;;;6.61;100.00;102493.69;5061783;28;20032;-74
2022/10/12 01:03:13;;;;;;;29.80;28.67;;;;;;;6.55;100.00;102492.25;5042823;28;20059;-74
2022/10/12 01:05:39;;;;;;;27.77;25.95;;;;;;;6.65;100.00;102516.22;5064361;28;20020;-74
2022/10/12 01:08:05;;;;;;;32.00;30.80;;;;;;;6.65;100.00;102513.59;5063906;28;20458;-74
2022/10/12 01:10:30;;;;;;;28.00;26.95;;;;;;;6.62;100.00;102511.13;5064374;28;20036;-74
2022/10/12 01:12:56;;;;;;;29.20;27.80;;;;;;;6.61;100.00;102509.44;5065115;28;20052;-74
2022/10/12 01:15:27;;;;;;;25.27;24.25;;;;;;;6.55;100.00;102511.47;5066027;28;20029;-74
2022/10/12 01:18:02;;;;;;;28.30;27.23;;;;;;;6.53;100.00;102517.69;5065344;28;20392;-74
2022/10/12 01:20:57;;;;;;;23.17;22.20;;;;;;;6.48;100.00;102510.09;5066851;28;20755;-74
2022/10/12 01:23:49;;;;;;;22.52;21.63;;;;;;;6.49;100.00;102513.53;5049293;28;20045;-74
2022/10/12 01:26:41;;;;;;;20.67;19.88;;;;;;;6.50;100.00;102512.63;5065955;28;20412;-74
2022/10/12 01:29:44;;;;;;;20.40;19.30;;;;;;;6.46;100.00;102514.56;5064408;28;20435;-74
2022/10/12 01:32:24;;;;;;;17.52;16.73;;;;;;;6.33;100.00;102495.19;5063187;28;20048;-74
2022/10/12 01:35:00;;;;;;;19.25;18.35;;;;;;;6.47;100.00;102508.41;5063591;28;20033;-74
2022/10/12 01:38:07;;;;;;;19.10;18.38;;;;;;;6.47;100.00;102507.56;5059000;28;20493;-74
2022/10/12 01:40:40;;;;;;;19.45;18.75;;;;;;;6.46;100.00;102511.94;5060628;28;20028;-74
2022/10/12 01:43:07;;;;;;;23.45;22.58;;;;;;;6.42;100.00;102505.16;5060920;28;20032;-74
2022/10/12 01:45:32;;;;;;;21.85;20.52;;;;;;;6.37;100.00;102510.66;5062956;28;20036;-74
2022/10/12 01:47:58;;;;;;;24.90;23.92;;;;;;;6.35;100.00;102507.28;5066054;28;20162;-74
2022/10/12 01:50:33;;;;;;;21.70;20.77;;;;;;;6.35;100.00;102499.41;5064398;28;20032;-74
2022/10/12 01:53:36;;;;;;;19.10;18.25;;;;;;;6.31;100.00;102500.50;5062949;28;20039;-74
2022/10/12 01:56:26;;;;;;;15.90;15.23;;;;;;;6.26;100.00;102505.16;5062453;28;20107;-74
2022/10/12 01:59:11;;;;;;;13.63;12.93;;;;;;;6.26;100.00;102499.06;5062897;28;20102;-75
2022/10/12 02:01:56;;;;;;;14.20;13.30;;;;;;;6.22;100.00;102498.38;5062712;28;20439;-74
2022/10/12 02:04:36;;;;;;;13.02;12.52;;;;;;;6.21;100.00;102491.44;5064612;28;20024;-74
2022/10/12 02:07:13;;;;;;;14.38;13.80;;;;;;;6.09;100.00;102465.88;5058365;28;20026;-74
2022/10/12 02:09:40;;;;;;;12.25;11.75;;;;;;;6.18;100.00;102489.84;5063180;28;20021;-74
2022/10/12 02:12:11;;;;;;;15.43;14.80;;;;;;;6.17;100.00;102479.41;5056082;28;20053;-74
2022/10/12 02:14:42;;;;;;;14.40;13.80;;;;;;;6.12;100.00;102486.69;5053997;28;20066;-74
2022/10/12 02:17:11;;;;;;;13.82;12.85;;;;;;;6.07;100.00;102473.81;5063816;28;20036;-74
2022/10/12 02:20:08;;;;;;;12.82;12.27;;;;;;;6.13;100.00;102477.88;5051089;28;20480;-75
2022/10/12 02:22:36;;;;;;;11.65;11.07;;;;;;;6.14;100.00;102475.19;5062710;28;20029;-74
2022/10/12 02:25:05;;;;;;;13.85;13.27;;;;;;;6.12;100.00;102471.81;5059190;28;20017;-74
2022/10/12 02:27:33;;;;;;;15.43;14.45;;;;;;;6.00;100.00;102456.72;5058723;28;20086;-75
2022/10/12 02:29:59;;;;;;;16.00;15.40;;;;;;;6.11;100.00;102475.34;5061446;28;20039;-74
2022/10/12 02:32:33;;;;;;;17.88;17.15;;;;;;;6.14;100.00;102475.19;5077788;28;20036;-74
2022/10/12 02:35:07;;;;;;;19.02;18.27;;;;;;;6.09;100.00;102455.38;5063738;28;20387;-74
2022/10/12 02:37:39;;;;;;;17.08;16.25;;;;;;;6.22;100.00;102466.06;5062973;28;20089;-74
2022/10/12 02:40:38;;;;;;;16.38;15.48;;;;;;;6.23;100.00;102472.97;5065809;28;20051;-74
2022/10/12 02:43:22;;;;;;;13.80;13.10;;;;;;;6.25;100.00;102472.00;5065274;28;20032;-74
2022/10/12 02:45:49;;;;;;;12.48;11.88;;;;;;;6.25;100.00;102463.25;5061886;28;20040;-74
2022/10/12 02:48:19;;;;;;;12.00;11.10;;;;;;;6.16;100.00;102449.75;5064876;28;20395;-74
2022/10/12 02:50:47;;;;;;;10.63;10.20;;;;;;;6.24;100.00;102454.56;5064537;28;20465;-74
2022/10/12 02:53:13;;;;;;;13.05;12.43;;;;;;;6.24;100.00;102464.22;5055918;28;20511;-74
2022/10/12 02:55:59;;;;;;;11.93;11.43;;;;;;;6.25;100.00;102458.03;5059753;28;20032;-74
2022/10/12 02:58:24;;;;;;;12.00;11.48;;;;;;;6.25;100.00;102458.03;5062020;28;20020;-74
2022/10/12 03:00:50;;;;;;;15.57;14.15;;;;;;;6.25;100.00;102450.16;5056013;28;20421;-74
2022/10/12 03:03:16;;;;;;;15.73;15.02;;;;;;;6.22;100.00;102434.59;5066394;28;20056;-74
2022/10/12 03:05:41;;;;;;;15.27;14.60;;;;;;;6.30;100.00;102449.00;5057360;28;20021;-74
2022/10/12 03:08:06;;;;;;;17.02;16.20;;;;;;;6.33;100.00;102450.59;5055334;28;20475;-74
2022/10/12 03:10:32;;;;;;;15.13;14.32;;;;;;;6.34;100.00;102454.94;5065651;28;20028;-74
2022/10/12 03:12:57;;;;;;;14.60;14.02;;;;;;;6.37;100.00;102454.75;5066154;28;20508;-74
2022/10/12 03:15:23;;;;;;;17.77;16.88;;;;;;;6.42;100.00;102457.97;5067749;28;20449;-74
2022/10/12 03:17:49;;;;;;;17.05;16.25;;;;;;;6.44;100.00;102456.09;5066427;28;20094;-74
2022/10/12 03:20:15;;;;;;;16.27;15.65;;;;;;;6.45;100.00;102457.81;5068495;28;20752;-74
2022/10/12 03:22:40;;;;;;;17.77;16.98;;;;;;;6.48;100.00;102457.63;5067496;28;20031;-74
2022/10/12 03:25:06;;;;;;;18.10;17.38;;;;;;;6.46;100.00;102451.63;5067107;28;20025;-74
2022/10/12 03:27:31;;;;;;;18.55;17.27;;;;;;;6.42;100.00;102441.38;5064010;28;20048;-74
2022/10/12 03:29:56;;;;;;;17.17;16.55;;;;;;;6.43;100.00;102443.94;5064817;28;20033;-74
2022/10/12 03:32:22;;;;;;;17.73;16.92;;;;;;;6.42;100.00;102442.22;5067076;28;20033;-74
2022/10/12 03:34:47;;;;;;;16.50;15.80;;;;;;;6.43;100.00;102438.69;5066076;28;20067;-74
2022/10/12 03:37:12;;;;;;;17.63;16.70;;;;;;;6.38;100.00;102430.22;5064496;28;20032;-74
2022/10/12 03:39:38;;;;;;;16.92;16.33;;;;;;;6.44;100.00;102442.97;5067300;28;20052;-74
2022/10/12 03:42:03;;;;;;;17.02;16.23;;;;;;;6.44;100.00;102439.53;5062005;28;20161;-74
2022/10/12 03:44:28;;;;;;;15.18;14.57;;;;;;;6.39;100.00;102437.16;5058645;28;20027;-74
2022/10/12 03:46:54;;;;;;;15.57;14.68;;;;;;;6.33;100.00;102440.94;5057548;28;20036;-74
2022/10/12 03:49:19;;;;;;;17.33;16.67;;;;;;;6.31;100.00;102434.09;5068318;28;20032;-74
2022/10/12 03:51:45;;;;;;;19.48;18.58;;;;;;;6.28;100.00;102429.88;5065449;28;20032;-74
2022/10/12 03:54:10;;;;;;;20.52;19.67;;;;;;;6.28;100.00;102431.66;5066412;28;20448;-74
2022/10/12 03:56:36;;;;;;;18.92;18.20;;;;;;;6.26;100.00;102431.72;5062520;28;20122;-74
2022/10/12 03:59:01;;;;;;;22.58;21.70;;;;;;;6.25;100.00;102430.06;5056752;28;20032;-74
2022/10/12 04:01:27;;;;;;;24.45;23.55;;;;;;;6.25;100.00;102421.31;5061225;28;20021;-74
2022/10/12 04:03:52;;;;;;;25.13;23.77;;;;;;;6.24;100.00;102422.25;5058081;28;20029;-74
2022/10/12 04:06:17;;;;;;;31.27;30.17;;;;;;;6.25;100.00;102423.94;5066521;28;20028;-74
2022/10/12 04:08:44;;;;;;;31.67;30.40;;;;;;;6.03;100.00;102388.41;5067353;28;20075;-74
2022/10/12 04:11:09;;;;;;;27.45;26.20;;;;;;;6.22;100.00;102416.25;5066084;28;20088;-74
2022/10/12 04:13:34;;;;;;;29.30;28.15;;;;;;;6.22;100.00;102424.13;5064483;28;20049;-74
2022/10/12 04:16:02;;;;;;;28.52;27.40;;;;;;;6.15;100.00;102418.34;5064502;28;20043;-74
2022/10/12 04:18:27;;;;;;;23.92;23.02;;;;;;;6.07;100.00;102400.41;5065699;28;20513;-74
2022/10/12 04:20:52;;;;;;;25.63;24.40;;;;;;;6.20;100.00;102420.72;5065406;28;20048;-74
2022/10/12 04:23:18;;;;;;;21.75;20.73;;;;;;;6.09;100.00;102400.34;5065582;28;20032;-74
2022/10/12 04:25:43;;;;;;;20.60;19.77;;;;;;;6.17;100.00;102425.22;5066543;28;20036;-74
2022/10/12 04:28:09;;;;;;;19.98;19.13;;;;;;;6.20;100.00;102416.31;5065423;28;20139;-74
2022/10/12 04:30:34;;;;;;;19.40;18.63;;;;;;;6.17;100.00;102412.09;5067267;28;20081;-74
2022/10/12 04:32:59;;;;;;;18.92;18.15;;;;;;;6.20;100.00;102420.72;5062829;28;20039;-74
2022/10/12 04:35:25;;;;;;;15.93;15.35;;;;;;;6.18;100.00;102412.94;5067842;28;20445;-73
2022/10/12 04:37:50;;;;;;;17.92;17.23;;;;;;;6.22;100.00;102413.63;5045995;28;20031;-74
2022/10/12 04:40:15;;;;;;;15.50;14.90;;;;;;;6.22;100.00;102416.25;5062926;28;20028;-75
2022/10/12 04:42:41;;;;;;;20.40;18.67;;;;;;;6.09;100.00;102400.34;5064253;28;21168;-74
2022/10/12 04:45:07;;;;;;;19.00;18.20;;;;;;;6.21;100.00;102422.44;5064804;28;20024;-74
2022/10/12 04:47:34;;;;;;;17.88;17.13;;;;;;;6.22;100.00;102421.50;5079929;28;20128;-74
2022/10/12 04:49:59;;;;;;;16.85;16.00;;;;;;;6.21;100.00;102417.19;5063364;28;20578;-74
2022/10/12 04:52:24;;;;;;;18.40;17.65;;;;;;;6.23;100.00;102421.41;5062772;28;20033;-74
2022/10/12 04:54:50;;;;;;;17.65;16.98;;;;;;;6.23;100.00;102423.16;5064252;28;20036;-74
2022/10/12 04:57:15;;;;;;;19.48;18.48;;;;;;;6.20;100.00;102418.94;5062427;28;20028;-74
2022/10/12 04:59:40;;;;;;;17.48;16.73;;;;;;;6.22;100.00;102424.94;5061934;28;20036;-74
2022/10/12 05:02:06;;;;;;;16.70;16.02;;;;;;;6.16;100.00;102420.03;5062186;28;20687;-74
2022/10/12 05:04:31;;;;;;;16.58;15.77;;;;;;;6.13;100.00;102422.84;5058846;28;20040;-74
2022/10/12 05:06:56;;;;;;;18.63;17.83;;;;;;;6.09;100.00;102419.53;5061934;28;20024;-74
2022/10/12 05:09:22;;;;;;;15.93;15.32;;;;;;;6.07;100.00;102421.38;5061292;28;20040;-74
2022/10/12 05:11:47;;;;;;;15.90;15.30;;;;;;;6.06;100.00;102411.84;5060217;28;20031;-74
2022/10/12 05:14:12;;;;;;;17.55;16.88;;;;;;;6.07;100.00;102415.28;5061118;28;20602;-74
2022/10/12 05:16:38;;;;;;;18.25;17.13;;;;;;;6.05;100.00;102411.91;5062671;28;20036;-74
2022/10/12 05:19:03;;;;;;;17.77;17.08;;;;;;;6.05;100.00;102414.53;5061327;28;20028;-74
2022/10/12 05:21:29;;;;;;;17.45;16.73;;;;;;;6.04;100.00;102420.72;5059279;28;20036;-74
2022/10/12 05:23:54;;;;;;;18.65;17.55;;;;;;;5.97;100.00;102412.34;5060330;28;20519;-74
2022/10/12 05:26:20;;;;;;;18.75;17.77;;;;;;;5.94;100.00;102415.97;5059169;28;20041;-74
2022/10/12 05:28:46;;;;;;;14.48;13.93;;;;;;;5.87;100.00;102414.53;5058235;28;20059;-74
2022/10/12 05:31:11;;;;;;;15.50;14.50;;;;;;;5.80;100.00;102409.72;5060060;28;20123;-73
2022/10/12 05:33:37;;;;;;;13.68;13.18;;;;;;;5.81;100.00;102414.03;5060993;28;20036;-73
2022/10/12 05:36:03;;;;;;;16.33;15.63;;;;;;;5.76;100.00;102412.47;5061238;28;20032;-73
2022/10/12 05:38:28;;;;;;;16.23;15.40;;;;;;;5.50;100.00;102381.56;5061020;28;20107;-73
2022/10/12 05:40:53;;;;;;;14.88;14.27;;;;;;;5.71;100.00;102417.13;5061593;28;20743;-73
2022/10/12 05:43:19;;;;;;;15.63;14.93;;;;;;;5.66;100.00;102413.91;5059952;28;20036;-73
2022/10/12 05:45:44;;;;;;;14.68;13.98;;;;;;;5.66;100.00;102415.66;5059396;28;20023;-73
2022/10/12 05:48:09;;;;;;;15.15;14.55;;;;;;;5.66;100.00;102405.19;5062227;28;20085;-72
2022/10/12 05:50:35;;;;;;;15.25;13.63;;;;;;;5.63;100.00;102408.81;5061313;28;20033;-72
2022/10/12 05:53:00;;;;;;;15.65;14.75;;;;;;;5.62;100.00;102409.75;5060696;28;20235;-72
2022/10/12 05:55:25;;;;;;;12.15;11.70;;;;;;;5.50;100.00;102390.28;5062627;28;20101;-72
2022/10/12 05:57:51;;;;;;;15.70;14.65;;;;;;;5.57;100.00;102412.63;5046424;28;20043;-73
2022/10/12 06:00:16;;;;;;;10.93;10.43;;;;;;;5.41;100.00;102382.06;5060985;28;20623;-73
2022/10/12 06:02:42;;;;;;;18.63;17.80;;;;;;;5.57;100.00;102403.88;5061321;28;20029;-74
2022/10/12 06:05:07;;;;;;;12.80;12.30;;;;;;;5.59;100.00;102409.06;5063342;28;20059;-73
2022/10/12 06:07:33;;;;;;;12.88;12.32;;;;;;;5.57;100.00;102401.28;5062009;28;20031;-73
2022/10/12 06:09:59;;;;;;;13.30;12.70;;;;;;;5.60;100.00;102411.59;5061277;28;20111;-73
2022/10/12 06:12:25;;;;;;;13.82;13.27;;;;;;;5.65;100.00;102408.75;5063921;28;20683;-73
2022/10/12 06:14:51;;;;;;;13.18;12.48;;;;;;;5.66;100.00;102410.44;5059547;28;20082;-73
2022/10/12 06:17:17;;;;;;;14.10;13.57;;;;;;;5.66;100.00;102411.28;5064867;28;20123;-73
2022/10/12 06:19:42;;;;;;;16.42;15.75;;;;;;;5.69;100.00;102405.88;5057513;28;20016;-73
2022/10/12 06:22:07;;;;;;;16.70;16.00;;;;;;;5.71;100.00;102406.66;5059336;28;20032;-73
2022/10/12 06:24:33;;;;;;;16.05;15.38;;;;;;;5.70;100.00;102399.69;5061581;28;20029;-73
2022/10/12 06:26:58;;;;;;;16.50;15.75;;;;;;;5.70;100.00;102399.69;5052756;28;20705;-73
2022/10/12 06:29:24;;;;;;;17.23;16.50;;;;;;;5.71;100.00;102403.19;5063463;28;20055;-73
2022/10/12 06:31:50;;;;;;;16.75;15.85;;;;;;;5.72;100.00;102402.25;5063923;28;20377;-73
2022/10/12 06:34:15;;;;;;;16.67;15.98;;;;;;;5.74;100.00;102401.25;5055191;28;20029;-74
2022/10/12 06:36:41;;;;;;;18.42;17.65;;;;;;;5.77;100.00;102406.34;5053314;28;20040;-73
2022/10/12 06:39:08;;;;;;;16.60;15.90;;;;;;;5.74;100.00;102396.00;5056806;28;20025;-73
2022/10/12 06:41:33;;;;;;;21.30;20.40;;;;;;;5.88;100.00;102397.91;5062624;28;20353;-73
2022/10/12 06:43:59;;;;;;;17.55;16.70;;;;;;;5.94;100.00;102405.50;5058852;28;20035;-73
2022/10/12 06:46:24;;;;;;;19.73;18.77;;;;;;;5.98;100.00;102406.16;5059828;28;20032;-73
2022/10/12 06:48:49;;;;;;;42.60;37.05;;;;;;;5.88;100.00;102390.06;5062659;28;20031;-73
2022/10/12 06:51:15;;;;;;;19.65;18.75;;;;;;;5.98;100.00;102408.78;5042744;28;20076;-73
2022/10/12 06:53:40;;;;;;;19.17;17.98;;;;;;;5.97;100.00;102412.34;5059384;28;20029;-74
2022/10/12 06:56:07;;;;;;;20.20;19.27;;;;;;;5.98;100.00;102406.16;5059696;28;20028;-74
2022/10/12 06:58:32;;;;;;;19.17;17.75;;;;;;;6.07;100.00;102404.81;5060189;28;20036;-73
2022/10/12 07:01:01;;;;;;;18.10;16.92;;;;;;;6.09;100.00;102401.16;5060191;28;20039;-73
2022/10/12 07:03:26;;;;;;;19.02;18.00;;;;;;;6.22;100.00;102414.47;5062648;28;20115;-77
2022/10/12 07:05:52;;;;;;;23.88;22.38;;;;;;;6.33;100.00;102409.47;5063505;28;20116;-77
2022/10/12 07:08:17;;;;;;;21.73;20.38;;;;;;;6.37;100.00;102403.13;5064538;28;20095;-75
2022/10/12 07:10:42;;;;;;;24.10;22.92;;;;;;;6.48;100.00;102410.41;5059883;28;20079;-75
2022/10/12 07:13:08;;;;;;;188.63;180.95;;;;;;;6.52;100.00;102406.69;5062805;28;20071;-76
2022/10/12 07:15:33;;;;;;;22.70;21.40;;;;;;;6.58;100.00;102401.13;5061124;28;20035;-76
2022/10/12 07:17:59;;;;;;;25.67;24.25;;;;;;;6.66;100.00;102402.44;5062546;28;20375;-75
2022/10/12 07:20:24;;;;;;;24.77;23.67;;;;;;;6.60;100.00;102385.28;5062429;28;20025;-75
2022/10/12 07:22:51;;;;;;;26.45;25.10;;;;;;;6.70;100.00;102382.97;5038959;28;20112;-76
2022/10/12 07:25:17;;;;;;;30.00;28.35;;;;;;;6.92;100.00;102404.44;5058484;28;20021;-75
2022/10/12 07:27:46;;;;;;;34.03;32.60;;;;;;;6.88;100.00;102397.69;5063234;28;20648;-77
2022/10/12 07:30:12;;;;;;;42.85;40.75;;;;;;;6.89;100.00;102390.66;5058114;28;20127;-76
2022/10/12 07:32:37;;;;;;;44.42;42.60;;;;;;;7.03;100.00;102401.19;5060301;28;20159;-76
2022/10/12 07:35:03;;;;;;;46.80;44.53;;;;;;;7.07;100.00;102400.09;5061660;28;20108;-75
2022/10/12 07:37:28;;;;;;;68.03;65.07;;;;;;;7.20;100.00;102402.84;5063930;28;20032;-75
2022/10/12 07:39:56;;;;;;;54.47;51.58;;;;;;;7.30;100.00;102404.00;5059382;28;20020;-76
2022/10/12 07:42:22;;;;;;;57.10;54.78;;;;;;;7.50;100.00;102400.19;5063231;28;20031;-75
2022/10/12 07:44:47;;;;;;;56.20;53.72;;;;;;;7.34;100.00;102374.00;5057243;28;20083;-76
2022/10/12 07:47:15;;;;;;;75.85;71.97;;;;;;;7.65;100.00;102408.94;5059354;28;20028;-76
2022/10/12 07:49:40;;;;;;;84.03;80.43;;;;;;;7.83;100.00;102402.53;5056374;28;20029;-75
2022/10/12 07:52:06;;;;;;;69.57;66.30;;;;;;;7.96;100.00;102389.50;5059901;28;20086;-75
2022/10/12 07:54:31;;;;;;;88.47;85.05;;;;;;;8.59;100.00;102405.75;5061024;28;20029;-75
2022/10/12 07:56:57;;;;;;;49.92;46.85;;;;;;;9.16;100.00;102399.41;5059789;28;20024;-75
2022/10/12 07:59:23;;;;;;;21.77;20.60;;;;;;;9.61;100.00;102386.69;5060039;28;20025;-75
2022/10/12 08:01:48;;;;;;;8.38;7.68;;;;;;;9.88;97.60;102392.66;5062637;28;20040;-75
2022/10/12 08:04:13;;;;;;;6.85;6.32;;;;;;;9.92;96.39;102395.09;5060891;28;20023;-76
2022/10/12 08:06:42;;;;;;;5.53;4.63;;;;;;;9.64;96.10;102394.38;5058555;28;20028;-76
2022/10/12 08:09:07;;;;;;;5.70;5.15;;;;;;;9.55;97.49;102400.28;5059290;28;20052;-75
2022/10/12 08:11:37;;;;;;;7.57;5.28;;;;;;;9.56;98.98;102397.56;5061363;28;20545;-76
2022/10/12 08:14:03;;;;;;;11.93;9.53;;;;;;;10.03;99.79;102389.91;5058490;28;20052;-76
2022/10/12 08:16:28;;;;;;;10.73;5.53;;;;;;;10.60;95.34;102407.81;5055883;28;20053;-75
2022/10/12 08:18:53;;;;;;;4.93;4.53;;;;;;;10.52;93.74;102404.91;5056955;28;20052;-75
2022/10/12 08:21:19;;;;;;;5.25;4.07;;;;;;;10.64;92.91;102409.28;5057654;28;20078;-75
2022/10/12 08:23:45;;;;;;;5.95;4.50;;;;;;;10.45;92.70;102406.28;5059715;28;20392;-75
2022/10/12 08:26:11;;;;;;;12.75;5.13;;;;;;;10.53;92.17;102414.50;5061067;28;20468;-76
2022/10/12 08:28:37;;;;;;;13.57;11.98;;;;;;;10.43;92.98;102413.47;5059392;28;20023;-75
2022/10/12 08:31:07;;;;;;;8.85;5.65;;;;;;;10.62;94.02;102411.19;5057876;28;20021;-75
2022/10/12 08:33:32;;;;;;;10.15;5.32;;;;;;;10.79;92.67;102403.84;5058462;28;20031;-75
2022/10/12 08:36:01;;;;;;;8.40;5.95;;;;;;;10.82;91.17;102404.47;5059330;28;20371;-75
2022/10/12 08:38:27;;;;;;;10.95;5.18;;;;;;;11.06;90.67;102407.06;5063710;28;20143;-77
2022/10/12 08:41:05;;;;;;;6.10;4.97;;;;;;;11.13;90.44;102415.38;5061949;28;20029;-76
2022/10/12 08:43:58;;;;;;;10.02;5.07;;;;;;;11.57;92.29;102402.38;5058717;28;20074;-76
2022/10/12 08:46:25;;;;;;;9.15;5.28;;;;;;;11.49;90.15;102403.78;5053989;28;20024;-76
2022/10/12 08:48:59;;;;;;;20.02;6.65;;;;;;;11.85;89.65;102393.16;5058537;28;20033;-76
2022/10/12 08:51:32;;;;;;;6.85;4.50;;;;;;;12.53;87.22;102404.50;5058098;28;20066;-76
2022/10/12 08:54:07;;;;;;;4.72;3.85;;;;;;;12.61;84.95;102415.31;5057521;28;20033;-76
2022/10/12 08:56:38;;;;;;;7.07;4.68;;;;;;;13.61;84.74;102406.16;5058149;28;20020;-77
2022/10/12 08:59:04;;;;;;;4.93;3.55;;;;;;;13.68;81.98;102402.84;5058782;28;20029;-76
2022/10/12 09:01:47;;;;;;;5.25;3.13;;;;;;;13.87;78.24;102383.53;5056948;28;20038;-76
2022/10/12 09:04:27;;;;;;;6.00;3.28;;;;;;;14.23;79.43;102406.97;5062914;28;20082;-76
2022/10/12 09:07:18;;;;;;;6.20;3.10;;;;;;;14.06;78.02;102384.56;5058776;28;20021;-76
2022/10/12 09:10:09;;;;;;;6.20;3.70;;;;;;;14.02;78.56;102399.06;5056952;28;20658;-76
2022/10/12 09:13:05;;;;;;;7.72;3.78;;;;;;;13.83;78.86;102411.31;5058381;28;20086;-76
2022/10/12 09:15:36;;;;;;;4.07;3.65;;;;;;;13.83;79.85;102406.00;5060415;28;20047;-77
2022/10/12 09:18:13;;;;;;;5.30;3.50;;;;;;;13.74;78.97;102364.31;5057350;28;20017;-77
2022/10/12 09:20:48;;;;;;;8.45;3.92;;;;;;;13.56;81.16;102402.06;5056482;28;20488;-76
2022/10/12 09:23:13;;;;;;;8.20;4.15;;;;;;;14.06;80.96;102400.47;5055563;28;20472;-76
2022/10/12 09:25:39;;;;;;;5.22;4.20;;;;;;;15.21;79.03;102406.91;5057844;28;20031;-78
2022/10/12 09:28:17;;;;;;;8.50;3.55;;;;;;;16.18;72.58;102391.59;5059390;28;20013;-77
2022/10/12 09:30:53;;;;;;;10.63;3.45;;;;;;;15.52;73.31;102398.69;5057513;28;20023;-76
2022/10/12 09:33:27;;;;;;;8.57;3.70;;;;;;;14.74;76.98;102377.56;5056513;28;20404;-76
2022/10/12 09:35:54;;;;;;;5.75;3.33;;;;;;;14.54;76.37;102389.94;5059532;28;20052;-75
2022/10/12 09:38:20;;;;;;;3.67;2.50;;;;;;;14.55;73.96;102407.63;5057836;28;20028;-77
2022/10/12 09:40:46;;;;;;;5.93;2.20;;;;;;;14.35;74.71;102401.41;5059686;28;20021;-76
2022/10/12 09:43:13;;;;;;;8.05;2.72;;;;;;;13.95;74.50;102407.56;5058192;28;20048;-78
2022/10/12 09:45:39;;;;;;;3.60;2.10;;;;;;;13.30;75.66;102384.91;5055804;28;20136;-77
2022/10/12 09:48:18;;;;;;;9.20;2.63;;;;;;;13.36;76.58;102408.25;5057986;28;20116;-77
2022/10/12 09:50:49;;;;;;;4.50;2.55;;;;;;;14.24;77.45;102413.94;5057771;28;20029;-76
2022/10/12 09:53:22;;;;;;;6.55;2.58;;;;;;;16.03;70.21;102413.41;5059644;28;20027;-75
2022/10/12 09:55:52;;;;;;;2.85;2.00;;;;;;;16.07;68.16;102415.75;5058019;28;20048;-75
2022/10/12 09:58:20;;;;;;;8.32;3.15;;;;;;;18.31;67.45;102409.13;5057983;28;20025;-76
2022/10/12 10:01:20;;;;;;;3.58;2.55;;;;;;;21.46;57.54;102411.19;5056709;28;20107;-76
2022/10/12 10:04:09;;;;;;;7.03;1.90;;;;;;;22.85;52.11;102413.91;5054424;28;20419;-76
2022/10/12 10:06:36;;;;;;;5.18;1.63;;;;;;;24.02;49.34;102415.13;5059329;28;20562;-78
2022/10/12 10:09:02;;;;;;;7.53;1.83;;;;;;;23.85;49.29;102419.19;5054696;28;20067;-77
2022/10/12 10:11:30;;;;;;;6.60;2.17;;;;;;;22.69;50.32;102425.75;5059378;28;20033;-76
2022/10/12 10:13:57;;;;;;;2.88;1.23;;;;;;;24.03;51.93;102423.00;5056981;28;20049;-76
2022/10/12 10:16:25;;;;;;;6.25;2.38;;;;;;;24.32;47.54;102429.09;5054824;28;20013;-76
2022/10/12 10:18:53;;;;;;;4.32;2.03;;;;;;;23.48;48.44;102426.63;5056325;28;20428;-78
2022/10/12 10:21:29;;;;;;;4.50;1.88;;;;;;;23.18;49.21;102435.72;5061552;28;20024;-76
2022/10/12 10:24:03;;;;;;;6.13;1.95;;;;;;;23.50;52.12;102424.56;5059650;28;20047;-76
2022/10/12 10:26:49;;;;;;;4.05;1.77;;;;;;;24.74;48.81;102423.63;5062093;28;20024;-76
2022/10/12 10:29:21;;;;;;;7.88;2.10;;;;;;;25.47;45.96;102433.59;5062119;28;20541;-76
2022/10/12 10:31:47;;;;;;;6.13;1.83;;;;;;;25.32;45.25;102423.81;5060593;28;20481;-75
2022/10/12 10:34:15;;;;;;;4.63;1.25;;;;;;;24.66;46.26;102421.94;5064407;28;20083;-77
2022/10/12 10:36:58;;;;;;;2.05;1.63;;;;;;;25.17;45.78;102424.03;5058972;28;20032;-77
2022/10/12 10:39:33;;;;;;;3.35;1.88;;;;;;;23.51;48.42;102418.97;5064689;28;20043;-78
2022/10/12 10:42:32;;;;;;;3.97;1.75;;;;;;;24.35;47.40;102420.63;5061313;28;20146;-78
2022/10/12 10:45:06;;;;;;;4.03;1.52;;;;;;;24.88;45.89;102422.59;5019133;28;20034;-77
2022/10/12 10:47:33;;;;;;;2.88;1.67;;;;;;;24.87;46.36;102418.22;5015648;28;20038;-78
2022/10/12 10:50:05;;;;;;;7.20;2.17;;;;;;;24.52;46.23;102402.22;5018163;28;20030;-77
2022/10/12 10:52:34;;;;;;;5.88;1.60;;;;;;;22.82;49.32;102384.69;5015859;28;20041;-77
2022/10/12 10:55:15;;;;;;;4.80;1.95;;;;;;;23.35;49.74;102390.47;5015259;28;20693;-77
2022/10/12 10:57:49;;;;;;;5.55;1.85;;;;;;;21.22;53.04;102369.28;5017284;28;20140;-77
2022/10/12 11:00:18;;;;;;;3.60;1.55;;;;;;;20.73;53.62;102377.78;5018243;28;20051;-76
2022/10/12 11:02:49;;;;;;;5.75;1.67;;;;;;;20.98;53.19;102372.22;5018022;28;20115;-77
2022/10/12 11:05:27;;;;;;;5.28;1.75;;;;;;;20.98;52.65;102372.22;5017925;28;20029;-77
2022/10/12 11:07:53;;;;;;;4.65;1.90;;;;;;;20.77;53.29;102375.59;5016357;28;20037;-77
2022/10/12 11:10:34;;;;;;;6.05;2.40;;;;;;;20.09;52.99;102367.31;5005910;28;20021;-77
2022/10/12 11:13:06;;;;;;;;;;;;;;;21.41;53.03;102356.34;5024934;28;20050;-75
2022/10/12 11:15:43;;;;;;;4.40;1.35;;;;;;;22.86;49.73;102361.72;5019544;28;19963;-77
2022/10/12 11:18:18;;;;;;;5.93;1.70;;;;;;;22.63;49.67;102361.94;5021949;28;20028;-77
2022/10/12 11:20:55;;;;;;;4.55;1.30;;;;;;;24.41;47.33;102343.38;5046645;28;20374;-77
2022/10/12 11:23:30;;;;;;;4.38;1.23;;;;;;;23.76;46.05;102356.53;5060293;28;20063;-75
2022/10/12 11:26:07;;;;;;;4.63;1.23;;;;;;;21.90;50.54;102340.47;5061011;28;20021;-77